createdAt,value
2018-03-14T00:00:39.856Z,9.70
2018-03-14T00:03:26.456Z,9.70
2018-03-14T00:05:59.126Z,9.70
2018-03-14T00:08:34.466Z,9.60
2018-03-14T00:11:08.577Z,9.60
2018-03-14T00:13:46.588Z,9.60
2018-03-14T00:16:21.215Z,9.60
2018-03-14T00:18:55.436Z,9.50
2018-03-14T00:21:27.806Z,9.50
2018-03-14T00:24:02.935Z,9.50
2018-03-14T00:26:36.746Z,9.50
2018-03-14T00:29:08.347Z,9.60
2018-03-14T00:31:41.999Z,9.60
2018-03-14T00:34:17.956Z,9.60
2018-03-14T00:36:50.086Z,9.60
2018-03-14T00:39:24.436Z,9.60
2018-03-14T00:41:57.015Z,9.70
2018-03-14T00:44:31.639Z,9.70
2018-03-14T00:47:04.417Z,9.70
2018-03-14T00:49:40.690Z,9.70
2018-03-14T00:52:14.075Z,9.70
2018-03-14T00:54:44.905Z,9.70
2018-03-14T00:57:19.086Z,9.70
2018-03-14T00:59:52.086Z,9.70
2018-03-14T01:02:23.766Z,9.70
2018-03-14T01:04:59.085Z,9.60
2018-03-14T01:07:31.066Z,9.50
2018-03-14T01:10:02.615Z,9.50
2018-03-14T01:12:37.115Z,9.40
2018-03-14T01:15:08.905Z,9.40
2018-03-14T01:17:40.658Z,9.40
2018-03-14T01:20:12.255Z,9.40
2018-03-14T01:22:44.135Z,9.40
2018-03-14T01:25:26.165Z,9.40
2018-03-14T01:27:59.266Z,9.30
2018-03-14T01:30:35.216Z,9.30
2018-03-14T01:33:07.489Z,9.30
2018-03-14T01:35:40.677Z,9.40
2018-03-14T01:38:12.356Z,9.40
2018-03-14T01:40:44.116Z,9.30
2018-03-14T01:43:17.386Z,9.30
2018-03-14T01:45:48.825Z,9.30
2018-03-14T01:48:28.164Z,9.30
2018-03-14T01:51:02.134Z,9.40
2018-03-14T01:53:34.164Z,9.30
2018-03-14T01:56:05.776Z,9.30
2018-03-14T01:58:38.175Z,9.20
2018-03-14T02:01:10.456Z,9.20
2018-03-14T02:03:46.145Z,9.20
2018-03-14T02:06:20.085Z,9.20
2018-03-14T02:08:54.401Z,9.20
2018-03-14T02:11:29.225Z,9.30
2018-03-14T02:14:03.961Z,8.90
2018-03-14T02:16:35.918Z,9.30
2018-03-14T02:19:07.415Z,9.30
2018-03-14T02:21:39.446Z,9.30
2018-03-14T02:24:13.856Z,9.30
2018-03-14T02:26:49.536Z,9.20
2018-03-14T02:29:23.616Z,9.20
2018-03-14T02:31:55.005Z,9.30
2018-03-14T02:34:30.716Z,9.30
2018-03-14T02:37:07.145Z,9.30
2018-03-14T02:39:40.776Z,9.30
2018-03-14T02:42:12.784Z,9.30
2018-03-14T02:44:45.626Z,9.20
2018-03-14T02:47:19.026Z,9.20
2018-03-14T02:49:50.776Z,9.20
2018-03-14T02:52:24.776Z,9.10
2018-03-14T02:54:55.625Z,9.10
2018-03-14T02:57:27.105Z,9.20
2018-03-14T02:59:58.525Z,9.10
2018-03-14T03:02:37.655Z,9.10
2018-03-14T03:05:09.215Z,9.10
2018-03-14T03:07:45.464Z,9.10
2018-03-14T03:10:19.195Z,9.10
2018-03-14T03:12:51.124Z,9.00
2018-03-14T03:15:25.157Z,9.10
2018-03-14T03:17:58.347Z,9.10
2018-03-14T03:20:34.705Z,9.10
2018-03-14T03:23:06.764Z,9.10
2018-03-14T03:25:40.877Z,9.20
2018-03-14T03:28:18.146Z,9.10
2018-03-14T03:30:51.068Z,9.10
2018-03-14T03:33:22.805Z,9.20
2018-03-14T03:35:55.894Z,9.10
2018-03-14T03:38:32.255Z,9.10
2018-03-14T03:41:06.267Z,9.20
2018-03-14T03:43:40.076Z,9.20
2018-03-14T03:46:15.337Z,9.20
2018-03-14T03:48:49.125Z,9.20
2018-03-14T03:51:23.746Z,9.20
2018-03-14T03:53:55.595Z,9.30
2018-03-14T03:56:26.885Z,9.20
2018-03-14T03:58:57.825Z,9.20
2018-03-14T04:01:30.455Z,9.20
2018-03-14T04:04:03.447Z,9.20
2018-03-14T04:06:37.765Z,9.10
2018-03-14T04:09:15.045Z,9.00
2018-03-14T04:11:49.465Z,9.00
2018-03-14T04:14:21.526Z,9.10
2018-03-14T04:16:53.705Z,9.00
2018-03-14T04:19:27.405Z,9.10
2018-03-14T04:21:58.575Z,9.10
2018-03-14T04:24:35.026Z,9.20
2018-03-14T04:27:06.266Z,9.10
2018-03-14T04:29:42.315Z,9.10
2018-03-14T04:32:16.950Z,9.10
2018-03-14T04:34:50.135Z,9.10
2018-03-14T04:37:22.126Z,9.10
2018-03-14T04:39:55.897Z,9.10
2018-03-14T04:42:27.857Z,9.00
2018-03-14T04:44:58.498Z,9.00
2018-03-14T04:47:30.556Z,9.10
2018-03-14T04:50:01.217Z,9.10
2018-03-14T04:52:33.765Z,9.10
2018-03-14T04:55:05.355Z,9.10
2018-03-14T04:57:38.155Z,9.10
2018-03-14T05:00:13.126Z,9.10
2018-03-14T05:02:47.345Z,9.10
2018-03-14T05:05:24.839Z,9.10
2018-03-14T05:07:56.385Z,9.10
2018-03-14T05:10:29.297Z,9.20
2018-03-14T05:13:03.276Z,9.20
2018-03-14T05:15:37.095Z,9.20
2018-03-14T05:18:13.776Z,9.10
2018-03-14T05:20:47.135Z,9.10
2018-03-14T05:23:27.516Z,9.10
2018-03-14T05:26:01.028Z,9.10
2018-03-14T05:28:34.825Z,9.10
2018-03-14T05:31:09.746Z,9.10
2018-03-14T05:33:45.805Z,9.20
2018-03-14T05:36:22.586Z,9.10
2018-03-14T05:38:57.105Z,9.10
2018-03-14T05:41:31.165Z,9.10
2018-03-14T05:44:03.635Z,9.10
2018-03-14T05:46:38.417Z,9.10
2018-03-14T05:49:10.884Z,9.10
2018-03-14T05:51:46.435Z,9.10
2018-03-14T05:54:18.605Z,9.10
2018-03-14T05:56:52.166Z,9.00
2018-03-14T05:59:26.415Z,9.00
2018-03-14T06:02:00.115Z,9.00
2018-03-14T06:04:32.147Z,9.00
2018-03-14T06:07:06.906Z,9.00
2018-03-14T06:09:38.606Z,9.10
2018-03-14T06:12:12.789Z,9.10
2018-03-14T06:14:48.178Z,9.10
2018-03-14T06:17:20.504Z,9.10
2018-03-14T06:19:53.385Z,9.10
2018-03-14T06:22:29.955Z,9.10
2018-03-14T06:25:04.476Z,9.00
2018-03-14T06:27:37.145Z,9.00
2018-03-14T06:30:09.414Z,9.10
2018-03-14T06:32:43.010Z,9.10
2018-03-14T06:35:17.187Z,9.10
2018-03-14T06:37:53.285Z,9.10
2018-03-14T06:40:24.638Z,9.20
2018-03-14T06:43:04.146Z,9.30
2018-03-14T06:45:35.736Z,9.30
2018-03-14T06:48:10.355Z,9.50
2018-03-14T06:50:42.956Z,9.60
2018-03-14T06:53:18.265Z,9.50
2018-03-14T06:55:49.814Z,9.50
2018-03-14T06:58:34.175Z,9.40
2018-03-14T07:01:19.649Z,9.40
2018-03-14T07:04:03.926Z,9.30
2018-03-14T07:06:45.695Z,9.30
2018-03-14T07:09:29.835Z,9.30
2018-03-14T07:12:02.337Z,9.30
2018-03-14T07:14:35.095Z,9.30
2018-03-14T07:17:07.679Z,9.30
2018-03-14T07:19:44.556Z,9.40
2018-03-14T07:22:19.385Z,9.40
2018-03-14T07:24:51.445Z,9.40
2018-03-14T07:27:22.795Z,9.40
2018-03-14T07:29:54.553Z,9.40
2018-03-14T07:32:30.705Z,9.50
2018-03-14T07:35:05.945Z,9.50
2018-03-14T07:37:42.614Z,9.50
2018-03-14T07:40:15.125Z,9.60
2018-03-14T07:42:56.375Z,9.70
2018-03-14T07:45:29.285Z,9.70
2018-03-14T07:48:02.223Z,9.80
2018-03-14T07:50:33.895Z,9.90
2018-03-14T07:53:10.254Z,10.00
2018-03-14T07:55:48.155Z,10.00
2018-03-14T07:58:23.336Z,10.00
2018-03-14T08:00:59.869Z,10.00
2018-03-14T08:03:32.854Z,10.10
2018-03-14T08:06:05.185Z,10.00
2018-03-14T08:08:41.795Z,10.00
2018-03-14T08:11:12.346Z,10.00
2018-03-14T08:13:44.247Z,10.10
2018-03-14T08:16:17.785Z,10.10
2018-03-14T08:18:52.615Z,10.20
2018-03-14T08:21:25.583Z,10.30
2018-03-14T08:24:00.734Z,10.40
2018-03-14T08:26:34.545Z,10.50
2018-03-14T08:29:08.654Z,10.70
2018-03-14T08:31:50.856Z,10.70
2018-03-14T08:34:23.066Z,10.70
2018-03-14T08:36:55.494Z,10.80
2018-03-14T08:39:26.635Z,10.80
2018-03-14T08:42:01.156Z,10.90
2018-03-14T08:44:31.826Z,10.90
2018-03-14T08:47:03.445Z,11.00
2018-03-14T08:49:35.645Z,11.10
2018-03-14T08:52:08.716Z,11.10
2018-03-14T08:54:42.295Z,11.20
2018-03-14T08:57:14.465Z,11.10
2018-03-14T08:59:46.015Z,11.20
2018-03-14T09:02:17.875Z,11.20
2018-03-14T09:04:51.789Z,11.20
2018-03-14T09:07:25.547Z,11.20
2018-03-14T09:10:03.175Z,11.10
2018-03-14T09:12:37.125Z,11.20
2018-03-14T09:15:08.024Z,11.20
2018-03-14T09:17:38.975Z,11.20
2018-03-14T09:20:12.776Z,11.20
2018-03-14T09:22:46.985Z,11.20
2018-03-14T09:25:18.749Z,11.30
2018-03-14T09:27:49.473Z,11.30
2018-03-14T09:30:20.724Z,11.40
2018-03-14T09:32:52.584Z,11.50
2018-03-14T09:35:24.345Z,11.50
2018-03-14T09:38:04.815Z,11.40
2018-03-14T09:40:36.325Z,11.30
2018-03-14T09:43:08.116Z,11.20
2018-03-14T09:45:41.815Z,11.20
2018-03-14T09:48:15.626Z,11.40
2018-03-14T09:50:49.186Z,11.60
2018-03-14T09:53:25.581Z,11.60
2018-03-14T09:55:57.448Z,11.50
2018-03-14T09:58:28.376Z,11.40
2018-03-14T10:01:07.816Z,11.70
2018-03-14T10:03:39.565Z,11.90
2018-03-14T10:06:13.786Z,12.00
2018-03-14T10:08:45.195Z,12.30
2018-03-14T10:11:16.375Z,12.40
2018-03-14T10:13:47.853Z,12.40
2018-03-14T10:16:19.065Z,12.50
2018-03-14T10:18:52.715Z,12.50
2018-03-14T10:21:27.615Z,12.50
2018-03-14T10:23:59.806Z,12.50
2018-03-14T10:26:32.056Z,12.50
2018-03-14T10:29:03.190Z,12.50
2018-03-14T10:31:34.844Z,12.50
2018-03-14T10:34:08.075Z,12.40
2018-03-14T10:36:39.197Z,12.40
2018-03-14T10:39:12.566Z,12.40
2018-03-14T10:41:46.375Z,12.50
2018-03-14T10:44:18.135Z,12.50
2018-03-14T10:46:50.388Z,12.60
2018-03-14T10:49:22.215Z,12.60
2018-03-14T10:51:53.735Z,12.70
2018-03-14T10:54:25.906Z,12.70
2018-03-14T10:56:59.066Z,12.90
2018-03-14T10:59:31.776Z,13.10
2018-03-14T11:02:09.366Z,13.10
2018-03-14T11:04:40.785Z,13.30
2018-03-14T11:07:15.005Z,13.50
2018-03-14T11:09:46.035Z,13.40
2018-03-14T11:12:17.705Z,13.70
2018-03-14T11:14:50.176Z,13.90
2018-03-14T11:17:22.345Z,14.10
2018-03-14T11:19:56.075Z,14.30
2018-03-14T11:22:32.515Z,14.30
2018-03-14T11:25:06.966Z,14.70
2018-03-14T11:27:37.785Z,14.70
2018-03-14T11:30:11.695Z,14.50
2018-03-14T11:32:43.026Z,14.40
2018-03-14T11:35:16.104Z,14.40
2018-03-14T11:37:50.324Z,14.40
2018-03-14T11:40:25.565Z,14.40
2018-03-14T11:42:57.194Z,14.50
2018-03-14T11:45:34.225Z,14.60
2018-03-14T11:48:10.864Z,14.90
2018-03-14T11:50:43.175Z,15.10
2018-03-14T11:53:13.597Z,15.10
2018-03-14T11:55:44.525Z,15.30
2018-03-14T11:58:16.246Z,15.60
2018-03-14T12:00:47.455Z,15.70
2018-03-14T12:03:19.195Z,15.90
2018-03-14T12:05:53.195Z,16.10
2018-03-14T12:08:25.885Z,16.00
2018-03-14T12:11:01.905Z,15.80
2018-03-14T12:13:33.215Z,15.80
2018-03-14T12:16:05.115Z,15.80
2018-03-14T12:18:37.847Z,16.00
2018-03-14T12:21:11.606Z,16.30
2018-03-14T12:23:44.586Z,16.50
2018-03-14T12:26:15.754Z,16.70
2018-03-14T12:28:50.215Z,16.80
2018-03-14T12:31:24.145Z,17.00
2018-03-14T12:33:55.226Z,16.90
2018-03-14T12:36:27.556Z,17.20
2018-03-14T12:38:59.638Z,16.80
2018-03-14T12:41:30.245Z,16.60
2018-03-14T12:44:02.656Z,17.00
2018-03-14T12:46:41.676Z,16.90
2018-03-14T12:49:15.227Z,17.30
2018-03-14T12:51:48.455Z,18.00
2018-03-14T12:54:19.265Z,18.10
2018-03-14T12:56:50.325Z,18.30
2018-03-14T12:59:22.785Z,18.20
2018-03-14T13:01:55.625Z,18.20
2018-03-14T13:04:30.516Z,18.20
2018-03-14T13:07:05.745Z,17.90
2018-03-14T13:09:38.025Z,18.20
2018-03-14T13:12:12.546Z,17.90
2018-03-14T13:14:47.797Z,17.40
2018-03-14T13:17:19.036Z,17.10
2018-03-14T13:19:51.005Z,16.80
2018-03-14T13:22:22.734Z,16.60
2018-03-14T13:24:53.675Z,16.50
2018-03-14T13:27:28.415Z,16.00
2018-03-14T13:30:01.196Z,15.70
2018-03-14T13:32:32.336Z,15.40
2018-03-14T13:35:04.236Z,15.10
2018-03-14T13:37:36.217Z,15.00
2018-03-14T13:40:07.705Z,14.70
2018-03-14T13:42:40.255Z,14.40
2018-03-14T13:45:10.916Z,14.40
2018-03-14T13:47:42.226Z,14.30
2018-03-14T13:50:13.926Z,14.10
2018-03-14T13:52:46.216Z,14.00
2018-03-14T13:55:18.657Z,13.80
2018-03-14T13:57:49.895Z,13.80
2018-03-14T14:00:21.684Z,13.80
2018-03-14T14:02:55.664Z,13.80
2018-03-14T14:05:29.485Z,13.60
2018-03-14T14:08:00.626Z,13.50
2018-03-14T14:10:34.357Z,13.50
2018-03-14T14:13:06.196Z,13.50
2018-03-14T14:15:38.585Z,13.50
2018-03-14T14:18:11.746Z,13.60
2018-03-14T14:20:42.816Z,13.50
2018-03-14T14:23:14.650Z,13.40
2018-03-14T14:25:46.230Z,13.20
2018-03-14T14:28:18.266Z,12.90
2018-03-14T14:30:50.564Z,13.00
2018-03-14T14:33:22.086Z,13.00
2018-03-14T14:35:53.876Z,13.10
2018-03-14T14:38:25.320Z,13.10
2018-03-14T14:40:56.417Z,13.30
2018-03-14T14:43:28.117Z,13.10
2018-03-14T14:45:59.376Z,13.10
2018-03-14T14:48:31.266Z,12.90
2018-03-14T14:51:02.980Z,12.80
2018-03-14T14:53:35.987Z,12.80
2018-03-14T14:56:06.766Z,12.80
2018-03-14T14:58:40.905Z,12.90
2018-03-14T15:01:13.236Z,12.90
2018-03-14T15:03:46.615Z,12.90
2018-03-14T15:06:18.835Z,13.00
2018-03-14T15:08:50.166Z,13.10
2018-03-14T15:11:22.455Z,13.10
2018-03-14T15:13:54.257Z,13.00
2018-03-14T15:16:27.795Z,12.80
2018-03-14T15:19:01.247Z,12.80
2018-03-14T15:21:32.942Z,12.80
2018-03-14T15:24:07.465Z,12.80
2018-03-14T15:26:46.256Z,12.80
2018-03-14T15:29:18.077Z,12.80
2018-03-14T15:31:48.577Z,12.70
2018-03-14T15:34:20.285Z,12.90
2018-03-14T15:36:52.221Z,12.90
2018-03-14T15:39:23.735Z,12.90
2018-03-14T15:42:02.235Z,12.80
2018-03-14T15:44:34.116Z,12.80
2018-03-14T15:47:07.606Z,12.80
2018-03-14T15:49:39.107Z,12.80
2018-03-14T15:52:11.346Z,12.80
2018-03-14T15:54:43.636Z,12.80
2018-03-14T15:57:16.256Z,12.80
2018-03-14T15:59:48.038Z,12.90
2018-03-14T16:02:20.836Z,12.90
2018-03-14T16:04:52.575Z,12.90
2018-03-14T16:07:23.756Z,13.00
2018-03-14T16:09:56.536Z,12.90
2018-03-14T16:12:28.786Z,12.90
2018-03-14T16:15:02.200Z,12.90
2018-03-14T16:17:36.596Z,13.00
2018-03-14T16:20:08.957Z,12.90
2018-03-14T16:22:40.405Z,13.00
2018-03-14T16:25:12.517Z,12.90
2018-03-14T16:27:46.474Z,13.00
2018-03-14T16:30:18.956Z,13.00
2018-03-14T16:32:51.516Z,13.00
2018-03-14T16:35:23.104Z,12.90
2018-03-14T16:37:54.038Z,12.90
2018-03-14T16:40:28.455Z,12.90
2018-03-14T16:43:00.436Z,12.90
2018-03-14T16:45:33.754Z,12.90
2018-03-14T16:48:05.545Z,12.90
2018-03-14T16:50:36.826Z,12.90
2018-03-14T16:53:08.856Z,12.90
2018-03-14T16:55:39.629Z,12.90
2018-03-14T16:58:12.201Z,11.80
2018-03-14T17:00:46.615Z,13.00
2018-03-14T17:03:23.887Z,12.90
2018-03-14T17:05:55.635Z,13.00
2018-03-14T17:08:27.484Z,12.90
2018-03-14T17:10:58.306Z,12.90
2018-03-14T17:13:29.176Z,12.90
2018-03-14T17:16:00.815Z,12.80
2018-03-14T17:18:32.987Z,12.70
2018-03-14T17:21:04.966Z,12.80
2018-03-14T17:23:38.754Z,12.80
2018-03-14T17:26:10.245Z,12.80
2018-03-14T17:28:42.285Z,12.70
2018-03-14T17:31:13.005Z,12.70
2018-03-14T17:33:46.396Z,12.70
2018-03-14T17:36:17.955Z,12.60
2018-03-14T17:38:57.910Z,12.50
2018-03-14T17:41:33.856Z,12.40
2018-03-14T17:44:12.676Z,12.20
2018-03-14T17:46:48.736Z,12.10
2018-03-14T17:49:27.286Z,12.10
2018-03-14T17:51:59.117Z,12.00
2018-03-14T17:54:32.211Z,11.90
2018-03-14T17:57:04.376Z,11.90
2018-03-14T17:59:37.325Z,11.90
2018-03-14T18:02:08.036Z,11.90
2018-03-14T18:04:39.636Z,11.80
2018-03-14T18:07:10.375Z,11.70
2018-03-14T18:09:41.315Z,11.70
2018-03-14T18:12:13.266Z,11.60
2018-03-14T18:14:44.556Z,11.60
2018-03-14T18:17:19.535Z,11.60
2018-03-14T18:19:51.677Z,11.60
2018-03-14T18:22:24.185Z,11.50
2018-03-14T18:24:55.305Z,11.50
2018-03-14T18:27:33.265Z,11.40
2018-03-14T18:30:07.345Z,11.40
2018-03-14T18:32:47.805Z,11.30
2018-03-14T18:35:27.046Z,11.30
2018-03-14T18:38:08.257Z,11.20
2018-03-14T18:40:44.985Z,11.20
2018-03-14T18:43:19.617Z,11.10
2018-03-14T18:45:52.197Z,11.00
2018-03-14T18:48:23.416Z,11.00
2018-03-14T18:50:58.896Z,11.00
2018-03-14T18:53:33.417Z,10.90
2018-03-14T18:56:08.645Z,10.90
2018-03-14T18:58:53.015Z,10.90
2018-03-14T19:01:24.758Z,10.80
2018-03-14T19:03:55.487Z,10.80
2018-03-14T19:06:29.495Z,10.80
2018-03-14T19:09:03.306Z,10.70
2018-03-14T19:11:37.936Z,10.70
2018-03-14T19:14:11.046Z,10.70
2018-03-14T19:16:43.415Z,10.70
2018-03-14T19:19:19.137Z,10.60
2018-03-14T19:21:51.276Z,10.60
2018-03-14T19:24:22.685Z,10.50
2018-03-14T19:26:54.537Z,10.50
2018-03-14T19:29:30.326Z,10.30
2018-03-14T19:32:02.156Z,10.30
2018-03-14T19:34:32.855Z,10.30
2018-03-14T19:37:04.815Z,10.40
2018-03-14T19:39:37.395Z,10.30
2018-03-14T19:42:09.244Z,10.30
2018-03-14T19:44:51.285Z,10.30
2018-03-14T19:47:26.384Z,10.30
2018-03-14T19:50:01.171Z,10.30
2018-03-14T19:52:37.336Z,10.30
2018-03-14T19:55:10.976Z,10.20
2018-03-14T19:57:46.426Z,10.20
2018-03-14T20:00:18.516Z,10.10
2018-03-14T20:02:53.284Z,9.90
2018-03-14T20:05:24.696Z,10.20
2018-03-14T20:07:57.235Z,10.10
2018-03-14T20:10:29.706Z,10.40
2018-03-14T20:13:00.885Z,10.10
2018-03-14T20:15:33.655Z,10.00
2018-03-14T20:18:06.446Z,10.00
2018-03-14T20:20:42.326Z,9.90
2018-03-14T20:23:19.235Z,9.80
2018-03-14T20:25:51.806Z,9.80
2018-03-14T20:28:25.817Z,9.80
2018-03-14T20:30:57.154Z,9.80
2018-03-14T20:33:28.936Z,9.80
2018-03-14T20:36:01.407Z,9.70
2018-03-14T20:38:37.876Z,9.80
2018-03-14T20:41:14.046Z,9.70
2018-03-14T20:43:49.375Z,9.70
2018-03-14T20:46:24.626Z,9.70
2018-03-14T20:49:02.016Z,9.60
2018-03-14T20:51:39.010Z,9.60
2018-03-14T20:54:17.596Z,9.60
2018-03-14T20:56:53.255Z,9.50
2018-03-14T20:59:29.725Z,9.50
2018-03-14T21:02:03.015Z,9.50
2018-03-14T21:04:34.055Z,9.50
2018-03-14T21:07:07.336Z,9.50
2018-03-14T21:09:41.715Z,9.40
2018-03-14T21:12:19.766Z,9.40
2018-03-14T21:14:55.296Z,9.30
2018-03-14T21:17:28.074Z,9.30
2018-03-14T21:20:00.105Z,9.40
2018-03-14T21:22:34.096Z,9.30
2018-03-14T21:25:11.046Z,9.30
2018-03-14T21:27:50.275Z,9.30
2018-03-14T21:30:21.827Z,9.30
2018-03-14T21:32:54.025Z,9.20
2018-03-14T21:35:33.296Z,9.10
2018-03-14T21:38:09.705Z,9.00
2018-03-14T21:40:45.455Z,9.00
2018-03-14T21:43:16.805Z,9.00
2018-03-14T21:45:47.845Z,9.00
2018-03-14T21:48:27.484Z,8.80
2018-03-14T21:50:59.079Z,8.80
2018-03-14T21:53:33.245Z,8.80
2018-03-14T21:56:07.286Z,8.80
2018-03-14T21:58:41.575Z,8.70
2018-03-14T22:01:14.145Z,8.70
2018-03-14T22:03:47.445Z,8.70
2018-03-14T22:06:18.875Z,8.80
2018-03-14T22:08:50.445Z,8.80
2018-03-14T22:11:22.397Z,8.80
2018-03-14T22:13:58.306Z,8.80
2018-03-14T22:16:31.065Z,8.80
2018-03-14T22:19:06.995Z,8.80
2018-03-14T22:21:38.575Z,8.80
2018-03-14T22:24:10.605Z,8.80
2018-03-14T22:26:42.466Z,8.80
2018-03-14T22:29:20.305Z,8.70
2018-03-14T22:31:58.306Z,8.70
2018-03-14T22:34:33.405Z,8.70
2018-03-14T22:37:07.379Z,8.60
2018-03-14T22:39:43.175Z,8.60
2018-03-14T22:42:23.228Z,8.60
2018-03-14T22:44:54.676Z,7.90
2018-03-14T22:47:27.256Z,8.40
2018-03-14T22:50:00.035Z,8.40
2018-03-14T22:52:32.365Z,8.40
2018-03-14T22:55:05.185Z,8.40
2018-03-14T22:57:36.126Z,8.40
2018-03-14T23:00:07.256Z,8.40
2018-03-14T23:02:40.206Z,8.20
2018-03-14T23:05:10.170Z,8.30
2018-03-14T23:07:43.555Z,8.20
2018-03-14T23:10:15.926Z,9.70
2018-03-14T23:12:49.665Z,8.10
2018-03-14T23:15:23.645Z,8.10
2018-03-14T23:17:55.911Z,8.10
2018-03-14T23:20:26.985Z,8.10
2018-03-14T23:23:04.646Z,8.00
2018-03-14T23:25:43.266Z,8.00
2018-03-14T23:28:15.435Z,8.10
2018-03-14T23:30:48.726Z,8.10
2018-03-14T23:33:22.865Z,8.10
2018-03-14T23:36:01.335Z,8.10
2018-03-14T23:38:38.347Z,8.10
2018-03-14T23:41:10.916Z,8.10
2018-03-14T23:43:45.327Z,8.20
2018-03-14T23:46:17.116Z,8.20
2018-03-14T23:48:48.225Z,8.10
2018-03-14T23:51:19.254Z,8.10
2018-03-14T23:53:56.046Z,8.10
2018-03-14T23:56:27.085Z,8.10
2018-03-14T23:59:05.595Z,8.10
